sensor_id;sensor_type;location;lat;lon;timestamp;P1;durP1;ratioP1;P2;durP2;ratioP2
4132;SDS011;2080;51.038;7.008;2022-09-23T00:00:40;288.57;;;56.03;;
4132;SDS011;2080;51.038;7.008;2022-09-23T00:03:06;329.57;;;76.67;;
4132;SDS011;2080;51.038;7.008;2022-09-23T00:05:37;324.80;;;73.53;;
4132;SDS011;2080;51.038;7.008;2022-09-23T00:08:06;316.40;;;71.70;;
4132;SDS011;2080;51.038;7.008;2022-09-23T00:10:37;317.30;;;76.70;;
4132;SDS011;2080;51.038;7.008;2022-09-23T00:13:03;319.10;;;71.17;;
4132;SDS011;2080;51.038;7.008;2022-09-23T00:15:29;391.00;;;253.33;;
4132;SDS011;2080;51.038;7.008;2022-09-23T00:17:58;361.43;;;171.77;;
4132;SDS011;2080;51.038;7.008;2022-09-23T00:20:28;343.60;;;115.47;;
4132;SDS011;2080;51.038;7.008;2022-09-23T00:22:56;401.40;;;238.77;;
4132;SDS011;2080;51.038;7.008;2022-09-23T00:25:24;348.53;;;157.93;;
4132;SDS011;2080;51.038;7.008;2022-09-23T00:27:51;567.43;;;513.13;;
4132;SDS011;2080;51.038;7.008;2022-09-23T00:30:21;541.67;;;482.60;;
4132;SDS011;2080;51.038;7.008;2022-09-23T00:32:47;531.17;;;476.57;;
4132;SDS011;2080;51.038;7.008;2022-09-23T00:35:13;455.80;;;379.30;;
4132;SDS011;2080;51.038;7.008;2022-09-23T00:37:42;503.80;;;448.60;;
4132;SDS011;2080;51.038;7.008;2022-09-23T00:40:07;324.43;;;85.30;;
4132;SDS011;2080;51.038;7.008;2022-09-23T00:42:33;369.27;;;174.43;;
4132;SDS011;2080;51.038;7.008;2022-09-23T00:45:00;318.40;;;63.57;;
4132;SDS011;2080;51.038;7.008;2022-09-23T00:47:32;324.20;;;80.80;;
4132;SDS011;2080;51.038;7.008;2022-09-23T00:50:14;369.73;;;191.60;;
4132;SDS011;2080;51.038;7.008;2022-09-23T00:52:51;365.63;;;188.63;;
4132;SDS011;2080;51.038;7.008;2022-09-23T00:55:23;351.80;;;149.97;;
4132;SDS011;2080;51.038;7.008;2022-09-23T00:57:53;416.50;;;304.57;;
4132;SDS011;2080;51.038;7.008;2022-09-23T01:00:20;575.10;;;517.20;;
4132;SDS011;2080;51.038;7.008;2022-09-23T01:02:47;540.37;;;486.33;;
4132;SDS011;2080;51.038;7.008;2022-09-23T01:05:12;587.33;;;529.67;;
4132;SDS011;2080;51.038;7.008;2022-09-23T01:07:39;663.03;;;600.27;;
4132;SDS011;2080;51.038;7.008;2022-09-23T01:10:05;484.03;;;432.70;;
4132;SDS011;2080;51.038;7.008;2022-09-23T01:21:12;441.10;;;320.70;;
4132;SDS011;2080;51.038;7.008;2022-09-23T01:26:53;389.07;;;204.23;;
4132;SDS011;2080;51.038;7.008;2022-09-23T01:32:14;383.70;;;181.00;;
4132;SDS011;2080;51.038;7.008;2022-09-23T01:34:46;330.43;;;84.63;;
4132;SDS011;2080;51.038;7.008;2022-09-23T01:40:24;390.13;;;215.40;;
4132;SDS011;2080;51.038;7.008;2022-09-23T01:43:08;364.57;;;153.77;;
4132;SDS011;2080;51.038;7.008;2022-09-23T01:45:44;357.40;;;131.37;;
4132;SDS011;2080;51.038;7.008;2022-09-23T01:51:03;367.93;;;171.33;;
4132;SDS011;2080;51.038;7.008;2022-09-23T01:56:08;350.57;;;134.87;;
4132;SDS011;2080;51.038;7.008;2022-09-23T01:58:44;361.20;;;166.33;;
4132;SDS011;2080;51.038;7.008;2022-09-23T02:07:31;397.63;;;237.97;;
4132;SDS011;2080;51.038;7.008;2022-09-23T02:12:53;401.43;;;257.53;;
4132;SDS011;2080;51.038;7.008;2022-09-23T02:15:38;316.87;;;74.00;;
4132;SDS011;2080;51.038;7.008;2022-09-23T02:18:11;322.37;;;93.33;;
4132;SDS011;2080;51.038;7.008;2022-09-23T02:20:41;318.93;;;75.70;;
4132;SDS011;2080;51.038;7.008;2022-09-23T02:23:11;306.23;;;54.63;;
4132;SDS011;2080;51.038;7.008;2022-09-23T02:31:23;328.87;;;90.80;;
4132;SDS011;2080;51.038;7.008;2022-09-23T02:33:56;324.70;;;94.57;;
4132;SDS011;2080;51.038;7.008;2022-09-23T02:36:25;321.50;;;66.93;;
4132;SDS011;2080;51.038;7.008;2022-09-23T02:38:56;315.37;;;73.90;;
4132;SDS011;2080;51.038;7.008;2022-09-23T02:44:19;314.77;;;68.77;;
4132;SDS011;2080;51.038;7.008;2022-09-23T02:46:49;313.57;;;75.70;;
4132;SDS011;2080;51.038;7.008;2022-09-23T02:49:30;308.77;;;61.17;;
4132;SDS011;2080;51.038;7.008;2022-09-23T02:51:58;315.77;;;70.13;;
4132;SDS011;2080;51.038;7.008;2022-09-23T02:54:29;328.10;;;91.77;;
4132;SDS011;2080;51.038;7.008;2022-09-23T02:56:57;333.07;;;113.67;;
4132;SDS011;2080;51.038;7.008;2022-09-23T02:59:25;338.23;;;116.23;;
4132;SDS011;2080;51.038;7.008;2022-09-23T03:06:54;321.60;;;87.33;;
4132;SDS011;2080;51.038;7.008;2022-09-23T03:15:27;337.27;;;85.07;;
4132;SDS011;2080;51.038;7.008;2022-09-23T03:17:35;329.03;;;103.67;;
4132;SDS011;2080;51.038;7.008;2022-09-23T03:20:11;335.40;;;111.00;;
4132;SDS011;2080;51.038;7.008;2022-09-23T03:22:46;330.80;;;107.80;;
4132;SDS011;2080;51.038;7.008;2022-09-23T03:25:17;321.47;;;84.80;;
4132;SDS011;2080;51.038;7.008;2022-09-23T03:27:48;345.53;;;118.40;;
4132;SDS011;2080;51.038;7.008;2022-09-23T03:30:16;310.63;;;74.10;;
4132;SDS011;2080;51.038;7.008;2022-09-23T03:32:43;313.30;;;66.57;;
4132;SDS011;2080;51.038;7.008;2022-09-23T03:35:11;318.23;;;66.77;;
4132;SDS011;2080;51.038;7.008;2022-09-23T03:37:46;331.97;;;90.47;;
4132;SDS011;2080;51.038;7.008;2022-09-23T03:42:43;317.43;;;81.80;;
4132;SDS011;2080;51.038;7.008;2022-09-23T03:45:13;300.97;;;70.23;;
4132;SDS011;2080;51.038;7.008;2022-09-23T03:47:42;316.53;;;75.80;;
4132;SDS011;2080;51.038;7.008;2022-09-23T03:50:08;294.33;;;61.00;;
4132;SDS011;2080;51.038;7.008;2022-09-23T03:52:33;313.50;;;67.83;;
4132;SDS011;2080;51.038;7.008;2022-09-23T03:54:59;310.73;;;56.53;;
4132;SDS011;2080;51.038;7.008;2022-09-23T03:57:25;314.17;;;71.60;;
4132;SDS011;2080;51.038;7.008;2022-09-23T03:59:51;292.60;;;64.67;;
4132;SDS011;2080;51.038;7.008;2022-09-23T04:02:17;318.77;;;70.47;;
4132;SDS011;2080;51.038;7.008;2022-09-23T04:04:45;323.03;;;93.37;;
4132;SDS011;2080;51.038;7.008;2022-09-23T04:07:13;321.13;;;70.40;;
4132;SDS011;2080;51.038;7.008;2022-09-23T04:09:39;318.43;;;73.67;;
4132;SDS011;2080;51.038;7.008;2022-09-23T04:12:04;336.73;;;115.73;;
4132;SDS011;2080;51.038;7.008;2022-09-23T04:14:30;323.93;;;93.63;;
4132;SDS011;2080;51.038;7.008;2022-09-23T04:16:56;308.23;;;89.23;;
4132;SDS011;2080;51.038;7.008;2022-09-23T04:19:24;300.83;;;70.37;;
4132;SDS011;2080;51.038;7.008;2022-09-23T04:21:49;379.73;;;182.00;;
4132;SDS011;2080;51.038;7.008;2022-09-23T04:24:15;379.47;;;198.63;;
4132;SDS011;2080;51.038;7.008;2022-09-23T04:26:41;315.03;;;68.53;;
4132;SDS011;2080;51.038;7.008;2022-09-23T04:29:11;422.50;;;325.73;;
4132;SDS011;2080;51.038;7.008;2022-09-23T04:31:36;317.37;;;81.30;;
4132;SDS011;2080;51.038;7.008;2022-09-23T04:34:02;337.37;;;147.70;;
4132;SDS011;2080;51.038;7.008;2022-09-23T04:36:28;355.23;;;122.00;;
4132;SDS011;2080;51.038;7.008;2022-09-23T04:38:54;373.30;;;190.10;;
4132;SDS011;2080;51.038;7.008;2022-09-23T04:41:20;319.27;;;81.70;;
4132;SDS011;2080;51.038;7.008;2022-09-23T04:43:48;400.03;;;256.13;;
4132;SDS011;2080;51.038;7.008;2022-09-23T04:46:14;394.47;;;233.93;;
4132;SDS011;2080;51.038;7.008;2022-09-23T04:48:42;401.10;;;263.93;;
4132;SDS011;2080;51.038;7.008;2022-09-23T04:51:12;347.37;;;142.50;;
4132;SDS011;2080;51.038;7.008;2022-09-23T04:53:40;362.03;;;175.80;;
4132;SDS011;2080;51.038;7.008;2022-09-23T04:56:07;398.60;;;253.80;;
4132;SDS011;2080;51.038;7.008;2022-09-23T04:58:35;369.83;;;192.17;;
4132;SDS011;2080;51.038;7.008;2022-09-23T05:01:07;320.53;;;77.47;;
4132;SDS011;2080;51.038;7.008;2022-09-23T05:03:36;318.97;;;126.67;;
4132;SDS011;2080;51.038;7.008;2022-09-23T05:06:02;328.03;;;94.67;;
4132;SDS011;2080;51.038;7.008;2022-09-23T05:08:31;305.07;;;77.03;;
4132;SDS011;2080;51.038;7.008;2022-09-23T05:11:01;377.70;;;205.73;;
4132;SDS011;2080;51.038;7.008;2022-09-23T05:13:29;359.97;;;161.93;;
4132;SDS011;2080;51.038;7.008;2022-09-23T05:16:05;339.23;;;104.30;;
4132;SDS011;2080;51.038;7.008;2022-09-23T05:18:35;317.23;;;93.30;;
4132;SDS011;2080;51.038;7.008;2022-09-23T05:21:05;300.43;;;61.33;;
4132;SDS011;2080;51.038;7.008;2022-09-23T05:23:31;407.03;;;246.37;;
4132;SDS011;2080;51.038;7.008;2022-09-23T05:26:00;416.53;;;265.60;;
4132;SDS011;2080;51.038;7.008;2022-09-23T05:28:30;367.40;;;162.77;;
4132;SDS011;2080;51.038;7.008;2022-09-23T05:31:09;348.17;;;151.40;;
4132;SDS011;2080;51.038;7.008;2022-09-23T05:33:38;399.23;;;269.97;;
4132;SDS011;2080;51.038;7.008;2022-09-23T05:36:07;402.37;;;248.80;;
4132;SDS011;2080;51.038;7.008;2022-09-23T05:38:33;471.33;;;421.13;;
4132;SDS011;2080;51.038;7.008;2022-09-23T05:41:02;468.43;;;405.03;;
4132;SDS011;2080;51.038;7.008;2022-09-23T05:43:29;367.20;;;169.80;;
4132;SDS011;2080;51.038;7.008;2022-09-23T05:48:40;427.23;;;325.43;;
4132;SDS011;2080;51.038;7.008;2022-09-23T05:51:07;344.73;;;118.17;;
4132;SDS011;2080;51.038;7.008;2022-09-23T05:53:39;418.97;;;330.30;;
4132;SDS011;2080;51.038;7.008;2022-09-23T05:56:08;403.27;;;248.47;;
4132;SDS011;2080;51.038;7.008;2022-09-23T05:58:36;429.93;;;305.43;;
4132;SDS011;2080;51.038;7.008;2022-09-23T06:01:12;353.10;;;153.50;;
4132;SDS011;2080;51.038;7.008;2022-09-23T06:03:46;355.63;;;157.90;;
4132;SDS011;2080;51.038;7.008;2022-09-23T06:06:15;344.23;;;109.70;;
4132;SDS011;2080;51.038;7.008;2022-09-23T06:08:46;341.90;;;129.73;;
4132;SDS011;2080;51.038;7.008;2022-09-23T06:11:14;343.07;;;124.77;;
4132;SDS011;2080;51.038;7.008;2022-09-23T06:13:39;322.17;;;81.50;;
4132;SDS011;2080;51.038;7.008;2022-09-23T06:16:06;320.97;;;88.07;;
4132;SDS011;2080;51.038;7.008;2022-09-23T06:18:33;355.30;;;108.73;;
4132;SDS011;2080;51.038;7.008;2022-09-23T06:21:01;344.30;;;125.10;;
4132;SDS011;2080;51.038;7.008;2022-09-23T06:23:30;333.97;;;102.83;;
4132;SDS011;2080;51.038;7.008;2022-09-23T06:26:00;319.93;;;60.00;;
4132;SDS011;2080;51.038;7.008;2022-09-23T06:28:33;387.13;;;199.53;;
4132;SDS011;2080;51.038;7.008;2022-09-23T06:31:02;508.87;;;453.40;;
4132;SDS011;2080;51.038;7.008;2022-09-23T06:33:29;366.70;;;143.10;;
4132;SDS011;2080;51.038;7.008;2022-09-23T06:35:55;500.23;;;447.83;;
4132;SDS011;2080;51.038;7.008;2022-09-23T06:38:21;691.60;;;627.00;;
4132;SDS011;2080;51.038;7.008;2022-09-23T06:40:50;531.77;;;465.50;;
4132;SDS011;2080;51.038;7.008;2022-09-23T06:43:16;508.33;;;445.53;;
4132;SDS011;2080;51.038;7.008;2022-09-23T06:45:42;361.93;;;105.03;;
4132;SDS011;2080;51.038;7.008;2022-09-23T06:48:12;400.40;;;199.17;;
4132;SDS011;2080;51.038;7.008;2022-09-23T06:50:38;360.73;;;127.70;;
4132;SDS011;2080;51.038;7.008;2022-09-23T06:53:05;408.30;;;222.07;;
4132;SDS011;2080;51.038;7.008;2022-09-23T06:55:33;445.27;;;342.90;;
4132;SDS011;2080;51.038;7.008;2022-09-23T06:58:01;554.03;;;498.23;;
4132;SDS011;2080;51.038;7.008;2022-09-23T07:00:26;449.47;;;317.80;;
4132;SDS011;2080;51.038;7.008;2022-09-23T07:02:53;398.00;;;183.87;;
4132;SDS011;2080;51.038;7.008;2022-09-23T07:05:18;430.03;;;280.27;;
4132;SDS011;2080;51.038;7.008;2022-09-23T07:07:46;633.80;;;575.47;;
4132;SDS011;2080;51.038;7.008;2022-09-23T07:10:11;378.30;;;151.03;;
4132;SDS011;2080;51.038;7.008;2022-09-23T07:12:39;739.13;;;671.47;;
4132;SDS011;2080;51.038;7.008;2022-09-23T07:15:05;379.43;;;178.47;;
4132;SDS011;2080;51.038;7.008;2022-09-23T07:17:33;344.33;;;83.33;;
4132;SDS011;2080;51.038;7.008;2022-09-23T07:19:59;639.03;;;576.17;;
4132;SDS011;2080;51.038;7.008;2022-09-23T07:22:27;462.53;;;346.30;;
4132;SDS011;2080;51.038;7.008;2022-09-23T07:24:53;397.40;;;165.93;;
4132;SDS011;2080;51.038;7.008;2022-09-23T07:27:24;441.73;;;334.63;;
4132;SDS011;2080;51.038;7.008;2022-09-23T07:29:51;459.70;;;359.87;;
4132;SDS011;2080;51.038;7.008;2022-09-23T07:32:18;440.60;;;345.60;;
4132;SDS011;2080;51.038;7.008;2022-09-23T07:34:46;397.97;;;224.50;;
4132;SDS011;2080;51.038;7.008;2022-09-23T07:37:13;405.47;;;242.53;;
4132;SDS011;2080;51.038;7.008;2022-09-23T07:39:39;343.93;;;115.83;;
4132;SDS011;2080;51.038;7.008;2022-09-23T07:42:06;324.00;;;67.63;;
4132;SDS011;2080;51.038;7.008;2022-09-23T07:44:40;318.20;;;63.23;;
4132;SDS011;2080;51.038;7.008;2022-09-23T07:47:11;313.73;;;51.17;;
4132;SDS011;2080;51.038;7.008;2022-09-23T07:49:40;325.20;;;69.20;;
4132;SDS011;2080;51.038;7.008;2022-09-23T07:52:07;328.97;;;72.90;;
4132;SDS011;2080;51.038;7.008;2022-09-23T07:54:33;328.63;;;77.40;;
4132;SDS011;2080;51.038;7.008;2022-09-23T07:56:58;328.77;;;78.17;;
4132;SDS011;2080;51.038;7.008;2022-09-23T07:59:24;359.17;;;102.37;;
4132;SDS011;2080;51.038;7.008;2022-09-23T08:01:54;359.87;;;145.43;;
4132;SDS011;2080;51.038;7.008;2022-09-23T08:04:27;355.53;;;138.33;;
4132;SDS011;2080;51.038;7.008;2022-09-23T08:06:56;369.33;;;165.93;;
4132;SDS011;2080;51.038;7.008;2022-09-23T08:09:26;385.73;;;204.03;;
4132;SDS011;2080;51.038;7.008;2022-09-23T08:11:53;397.67;;;207.33;;
4132;SDS011;2080;51.038;7.008;2022-09-23T08:14:19;381.07;;;193.43;;
4132;SDS011;2080;51.038;7.008;2022-09-23T08:16:47;405.83;;;243.23;;
4132;SDS011;2080;51.038;7.008;2022-09-23T08:19:13;358.30;;;156.90;;
4132;SDS011;2080;51.038;7.008;2022-09-23T08:21:39;345.27;;;98.63;;
4132;SDS011;2080;51.038;7.008;2022-09-23T08:24:06;321.33;;;80.10;;
4132;SDS011;2080;51.038;7.008;2022-09-23T08:26:33;315.03;;;65.03;;
4132;SDS011;2080;51.038;7.008;2022-09-23T08:28:59;348.60;;;121.73;;
4132;SDS011;2080;51.038;7.008;2022-09-23T08:31:27;324.10;;;69.00;;
4132;SDS011;2080;51.038;7.008;2022-09-23T08:33:56;330.93;;;59.20;;
4132;SDS011;2080;51.038;7.008;2022-09-23T08:36:24;311.40;;;51.50;;
4132;SDS011;2080;51.038;7.008;2022-09-23T08:38:50;306.47;;;52.37;;
4132;SDS011;2080;51.038;7.008;2022-09-23T08:43:57;307.67;;;49.90;;
4132;SDS011;2080;51.038;7.008;2022-09-23T08:46:31;305.17;;;50.47;;
4132;SDS011;2080;51.038;7.008;2022-09-23T08:49:03;305.37;;;49.30;;
4132;SDS011;2080;51.038;7.008;2022-09-23T08:51:35;313.57;;;48.13;;
4132;SDS011;2080;51.038;7.008;2022-09-23T08:54:07;301.43;;;41.23;;
4132;SDS011;2080;51.038;7.008;2022-09-23T08:56:34;299.23;;;39.90;;
4132;SDS011;2080;51.038;7.008;2022-09-23T09:01:51;304.00;;;37.53;;
4132;SDS011;2080;51.038;7.008;2022-09-23T09:10:18;297.13;;;34.00;;
4132;SDS011;2080;51.038;7.008;2022-09-23T09:13:14;290.27;;;31.40;;
4132;SDS011;2080;51.038;7.008;2022-09-23T09:15:40;292.40;;;31.43;;
4132;SDS011;2080;51.038;7.008;2022-09-23T09:18:18;301.60;;;33.23;;
4132;SDS011;2080;51.038;7.008;2022-09-23T09:26:28;293.57;;;27.00;;
4132;SDS011;2080;51.038;7.008;2022-09-23T09:31:56;294.47;;;27.90;;
4132;SDS011;2080;51.038;7.008;2022-09-23T09:37:24;288.83;;;25.83;;
4132;SDS011;2080;51.038;7.008;2022-09-23T09:39:55;292.83;;;27.37;;
4132;SDS011;2080;51.038;7.008;2022-09-23T09:42:25;294.97;;;28.27;;
4132;SDS011;2080;51.038;7.008;2022-09-23T09:45:00;293.90;;;25.77;;
4132;SDS011;2080;51.038;7.008;2022-09-23T09:53:19;296.97;;;30.03;;
4132;SDS011;2080;51.038;7.008;2022-09-23T09:55:54;292.33;;;30.37;;
4132;SDS011;2080;51.038;7.008;2022-09-23T09:58:23;307.70;;;31.67;;
4132;SDS011;2080;51.038;7.008;2022-09-23T10:00:51;287.80;;;28.20;;
4132;SDS011;2080;51.038;7.008;2022-09-23T10:03:51;296.77;;;31.00;;
4132;SDS011;2080;51.038;7.008;2022-09-23T10:06:34;298.37;;;31.80;;
4132;SDS011;2080;51.038;7.008;2022-09-23T10:11:27;293.37;;;29.70;;
4132;SDS011;2080;51.038;7.008;2022-09-23T10:16:41;293.17;;;28.90;;
4132;SDS011;2080;51.038;7.008;2022-09-23T10:22:03;295.20;;;27.97;;
4132;SDS011;2080;51.038;7.008;2022-09-23T10:24:40;298.83;;;28.03;;
4132;SDS011;2080;51.038;7.008;2022-09-23T10:27:16;309.17;;;31.23;;
4132;SDS011;2080;51.038;7.008;2022-09-23T10:29:52;293.20;;;27.80;;
4132;SDS011;2080;51.038;7.008;2022-09-23T10:35:00;298.93;;;30.73;;
4132;SDS011;2080;51.038;7.008;2022-09-23T10:37:29;294.83;;;28.87;;
4132;SDS011;2080;51.038;7.008;2022-09-23T10:39:57;298.07;;;30.80;;
4132;SDS011;2080;51.038;7.008;2022-09-23T10:45:38;310.77;;;30.83;;
4132;SDS011;2080;51.038;7.008;2022-09-23T10:51:03;292.37;;;31.67;;
4132;SDS011;2080;51.038;7.008;2022-09-23T10:53:57;297.27;;;34.63;;
4132;SDS011;2080;51.038;7.008;2022-09-23T10:56:32;298.03;;;36.40;;
4132;SDS011;2080;51.038;7.008;2022-09-23T10:59:11;298.57;;;38.43;;
4132;SDS011;2080;51.038;7.008;2022-09-23T11:15:16;298.57;;;40.40;;
4132;SDS011;2080;51.038;7.008;2022-09-23T11:18:37;302.10;;;40.60;;
4132;SDS011;2080;51.038;7.008;2022-09-23T11:32:32;306.90;;;41.90;;
4132;SDS011;2080;51.038;7.008;2022-09-23T11:37:50;308.53;;;42.50;;
4132;SDS011;2080;51.038;7.008;2022-09-23T11:40:31;308.23;;;47.57;;
4132;SDS011;2080;51.038;7.008;2022-09-23T11:45:55;304.10;;;44.13;;
4132;SDS011;2080;51.038;7.008;2022-09-23T11:48:35;316.17;;;47.03;;
4132;SDS011;2080;51.038;7.008;2022-09-23T11:56:25;310.20;;;45.40;;
4132;SDS011;2080;51.038;7.008;2022-09-23T12:01:31;309.33;;;52.03;;
4132;SDS011;2080;51.038;7.008;2022-09-23T12:06:53;308.93;;;59.40;;
4132;SDS011;2080;51.038;7.008;2022-09-23T12:10:10;312.20;;;57.70;;
4132;SDS011;2080;51.038;7.008;2022-09-23T12:12:19;314.10;;;61.27;;
4132;SDS011;2080;51.038;7.008;2022-09-23T12:20:04;318.37;;;61.27;;
4132;SDS011;2080;51.038;7.008;2022-09-23T12:25:51;327.23;;;63.80;;
4132;SDS011;2080;51.038;7.008;2022-09-23T12:28:32;323.60;;;60.40;;
4132;SDS011;2080;51.038;7.008;2022-09-23T12:31:02;321.80;;;58.90;;
4132;SDS011;2080;51.038;7.008;2022-09-23T12:33:36;312.90;;;59.37;;
4132;SDS011;2080;51.038;7.008;2022-09-23T12:36:12;317.30;;;53.87;;
4132;SDS011;2080;51.038;7.008;2022-09-23T12:38:57;314.47;;;55.40;;
4132;SDS011;2080;51.038;7.008;2022-09-23T12:41:32;319.43;;;54.30;;
4132;SDS011;2080;51.038;7.008;2022-09-23T12:46:47;314.97;;;53.67;;
4132;SDS011;2080;51.038;7.008;2022-09-23T12:49:29;322.33;;;52.97;;
4132;SDS011;2080;51.038;7.008;2022-09-23T12:54:42;308.10;;;51.30;;
4132;SDS011;2080;51.038;7.008;2022-09-23T12:57:13;317.70;;;46.17;;
4132;SDS011;2080;51.038;7.008;2022-09-23T13:05:19;330.90;;;52.10;;
4132;SDS011;2080;51.038;7.008;2022-09-23T13:08:15;310.33;;;45.60;;
4132;SDS011;2080;51.038;7.008;2022-09-23T13:10:44;313.07;;;47.53;;
4132;SDS011;2080;51.038;7.008;2022-09-23T13:16:08;305.27;;;46.57;;
4132;SDS011;2080;51.038;7.008;2022-09-23T13:18:50;310.73;;;46.50;;
4132;SDS011;2080;51.038;7.008;2022-09-23T13:24:15;319.73;;;46.80;;
4132;SDS011;2080;51.038;7.008;2022-09-23T13:26:48;309.70;;;41.00;;
4132;SDS011;2080;51.038;7.008;2022-09-23T13:32:10;319.60;;;45.10;;
4132;SDS011;2080;51.038;7.008;2022-09-23T13:42:52;312.80;;;43.80;;
4132;SDS011;2080;51.038;7.008;2022-09-23T13:45:19;324.50;;;45.70;;
4132;SDS011;2080;51.038;7.008;2022-09-23T13:47:49;308.03;;;49.50;;
4132;SDS011;2080;51.038;7.008;2022-09-23T13:50:21;327.57;;;51.13;;
4132;SDS011;2080;51.038;7.008;2022-09-23T13:52:51;306.43;;;51.17;;
4132;SDS011;2080;51.038;7.008;2022-09-23T13:55:30;310.13;;;53.77;;
4132;SDS011;2080;51.038;7.008;2022-09-23T13:57:58;323.50;;;58.27;;
4132;SDS011;2080;51.038;7.008;2022-09-23T14:00:31;314.73;;;52.70;;
4132;SDS011;2080;51.038;7.008;2022-09-23T14:03:00;316.40;;;66.23;;
4132;SDS011;2080;51.038;7.008;2022-09-23T14:05:28;344.37;;;64.73;;
4132;SDS011;2080;51.038;7.008;2022-09-23T14:07:58;314.27;;;62.00;;
4132;SDS011;2080;51.038;7.008;2022-09-23T14:10:24;315.77;;;65.97;;
4132;SDS011;2080;51.038;7.008;2022-09-23T14:12:57;316.47;;;64.70;;
4132;SDS011;2080;51.038;7.008;2022-09-23T14:15:25;310.23;;;59.10;;
4132;SDS011;2080;51.038;7.008;2022-09-23T14:17:58;345.63;;;73.57;;
4132;SDS011;2080;51.038;7.008;2022-09-23T14:20:27;317.80;;;62.93;;
4132;SDS011;2080;51.038;7.008;2022-09-23T14:23:05;318.53;;;57.47;;
4132;SDS011;2080;51.038;7.008;2022-09-23T14:25:34;318.80;;;68.87;;
4132;SDS011;2080;51.038;7.008;2022-09-23T14:28:00;313.77;;;56.67;;
4132;SDS011;2080;51.038;7.008;2022-09-23T14:30:26;333.30;;;63.20;;
4132;SDS011;2080;51.038;7.008;2022-09-23T14:32:55;318.80;;;60.60;;
4132;SDS011;2080;51.038;7.008;2022-09-23T14:35:37;327.03;;;57.63;;
4132;SDS011;2080;51.038;7.008;2022-09-23T14:38:06;312.60;;;56.47;;
4132;SDS011;2080;51.038;7.008;2022-09-23T14:40:54;332.63;;;61.23;;
4132;SDS011;2080;51.038;7.008;2022-09-23T14:46:21;326.47;;;61.53;;
4132;SDS011;2080;51.038;7.008;2022-09-23T14:48:56;310.57;;;57.83;;
4132;SDS011;2080;51.038;7.008;2022-09-23T14:51:29;324.87;;;58.80;;
4132;SDS011;2080;51.038;7.008;2022-09-23T14:54:20;331.17;;;44.58;;
4132;SDS011;2080;51.038;7.008;2022-09-23T14:56:47;304.13;;;53.43;;
4132;SDS011;2080;51.038;7.008;2022-09-23T14:59:25;315.83;;;54.40;;
4132;SDS011;2080;51.038;7.008;2022-09-23T15:01:52;329.20;;;55.57;;
4132;SDS011;2080;51.038;7.008;2022-09-23T15:06:49;314.63;;;53.37;;
4132;SDS011;2080;51.038;7.008;2022-09-23T15:11:55;304.80;;;48.40;;
4132;SDS011;2080;51.038;7.008;2022-09-23T15:14:25;325.93;;;56.00;;
4132;SDS011;2080;51.038;7.008;2022-09-23T15:16:57;314.67;;;56.27;;
4132;SDS011;2080;51.038;7.008;2022-09-23T15:19:26;310.77;;;53.73;;
4132;SDS011;2080;51.038;7.008;2022-09-23T15:21:59;317.50;;;51.93;;
4132;SDS011;2080;51.038;7.008;2022-09-23T15:24:36;306.33;;;45.30;;
4132;SDS011;2080;51.038;7.008;2022-09-23T15:27:37;313.60;;;45.60;;
4132;SDS011;2080;51.038;7.008;2022-09-23T15:32:39;309.77;;;49.27;;
4132;SDS011;2080;51.038;7.008;2022-09-23T15:35:05;300.10;;;38.40;;
4132;SDS011;2080;51.038;7.008;2022-09-23T15:37:31;309.07;;;50.30;;
4132;SDS011;2080;51.038;7.008;2022-09-23T15:39:57;318.23;;;49.80;;
4132;SDS011;2080;51.038;7.008;2022-09-23T15:42:22;305.57;;;48.60;;
4132;SDS011;2080;51.038;7.008;2022-09-23T15:44:50;324.60;;;53.70;;
4132;SDS011;2080;51.038;7.008;2022-09-23T15:47:15;312.27;;;53.73;;
4132;SDS011;2080;51.038;7.008;2022-09-23T15:49:42;310.00;;;50.07;;
4132;SDS011;2080;51.038;7.008;2022-09-23T15:52:13;306.63;;;48.87;;
4132;SDS011;2080;51.038;7.008;2022-09-23T15:54:39;298.90;;;47.67;;
4132;SDS011;2080;51.038;7.008;2022-09-23T15:57:12;306.73;;;48.30;;
4132;SDS011;2080;51.038;7.008;2022-09-23T15:59:38;300.57;;;46.03;;
4132;SDS011;2080;51.038;7.008;2022-09-23T16:02:05;296.13;;;43.90;;
4132;SDS011;2080;51.038;7.008;2022-09-23T16:04:39;303.43;;;46.20;;
4132;SDS011;2080;51.038;7.008;2022-09-23T16:07:06;306.60;;;49.33;;
4132;SDS011;2080;51.038;7.008;2022-09-23T16:09:38;301.53;;;49.00;;
4132;SDS011;2080;51.038;7.008;2022-09-23T16:12:03;306.10;;;48.20;;
4132;SDS011;2080;51.038;7.008;2022-09-23T16:14:33;310.63;;;40.70;;
4132;SDS011;2080;51.038;7.008;2022-09-23T16:17:00;301.07;;;39.07;;
4132;SDS011;2080;51.038;7.008;2022-09-23T16:19:27;311.80;;;44.80;;
4132;SDS011;2080;51.038;7.008;2022-09-23T16:21:54;295.83;;;43.13;;
4132;SDS011;2080;51.038;7.008;2022-09-23T16:24:20;302.33;;;47.37;;
4132;SDS011;2080;51.038;7.008;2022-09-23T16:26:46;320.90;;;76.30;;
4132;SDS011;2080;51.038;7.008;2022-09-23T16:29:14;311.10;;;62.67;;
4132;SDS011;2080;51.038;7.008;2022-09-23T16:31:40;311.10;;;57.07;;
4132;SDS011;2080;51.038;7.008;2022-09-23T16:34:05;315.20;;;53.63;;
4132;SDS011;2080;51.038;7.008;2022-09-23T16:36:32;310.40;;;48.87;;
4132;SDS011;2080;51.038;7.008;2022-09-23T16:39:03;302.97;;;49.10;;
4132;SDS011;2080;51.038;7.008;2022-09-23T16:41:31;312.80;;;40.23;;
4132;SDS011;2080;51.038;7.008;2022-09-23T16:43:59;317.10;;;53.43;;
4132;SDS011;2080;51.038;7.008;2022-09-23T16:46:26;349.33;;;89.57;;
4132;SDS011;2080;51.038;7.008;2022-09-23T16:48:53;330.43;;;76.53;;
4132;SDS011;2080;51.038;7.008;2022-09-23T16:51:22;317.37;;;57.37;;
4132;SDS011;2080;51.038;7.008;2022-09-23T16:53:50;312.40;;;40.83;;
4132;SDS011;2080;51.038;7.008;2022-09-23T16:56:17;321.97;;;71.23;;
4132;SDS011;2080;51.038;7.008;2022-09-23T16:58:44;359.50;;;107.07;;
4132;SDS011;2080;51.038;7.008;2022-09-23T17:01:13;358.90;;;108.33;;
4132;SDS011;2080;51.038;7.008;2022-09-23T17:04:01;340.60;;;109.27;;
4132;SDS011;2080;51.038;7.008;2022-09-23T17:06:27;343.07;;;108.60;;
4132;SDS011;2080;51.038;7.008;2022-09-23T17:08:53;347.53;;;117.03;;
4132;SDS011;2080;51.038;7.008;2022-09-23T17:11:21;356.57;;;142.63;;
4132;SDS011;2080;51.038;7.008;2022-09-23T17:13:47;380.90;;;182.40;;
4132;SDS011;2080;51.038;7.008;2022-09-23T17:16:23;390.57;;;153.83;;
4132;SDS011;2080;51.038;7.008;2022-09-23T17:18:54;373.67;;;139.30;;
4132;SDS011;2080;51.038;7.008;2022-09-23T17:21:23;358.67;;;119.77;;
4132;SDS011;2080;51.038;7.008;2022-09-23T17:23:51;348.43;;;99.90;;
4132;SDS011;2080;51.038;7.008;2022-09-23T17:26:17;342.00;;;91.07;;
4132;SDS011;2080;51.038;7.008;2022-09-23T17:28:44;325.20;;;63.53;;
4132;SDS011;2080;51.038;7.008;2022-09-23T17:31:09;328.73;;;59.43;;
4132;SDS011;2080;51.038;7.008;2022-09-23T17:33:35;337.23;;;68.33;;
4132;SDS011;2080;51.038;7.008;2022-09-23T17:36:07;417.87;;;205.20;;
4132;SDS011;2080;51.038;7.008;2022-09-23T17:38:37;435.13;;;274.00;;
4132;SDS011;2080;51.038;7.008;2022-09-23T17:41:06;456.63;;;340.37;;
4132;SDS011;2080;51.038;7.008;2022-09-23T17:43:32;444.83;;;296.77;;
4132;SDS011;2080;51.038;7.008;2022-09-23T17:46:07;490.93;;;438.23;;
4132;SDS011;2080;51.038;7.008;2022-09-23T17:48:39;457.77;;;315.03;;
4132;SDS011;2080;51.038;7.008;2022-09-23T17:51:15;455.40;;;374.53;;
4132;SDS011;2080;51.038;7.008;2022-09-23T17:53:43;447.33;;;328.67;;
4132;SDS011;2080;51.038;7.008;2022-09-23T17:56:12;418.90;;;248.03;;